Time;durP1;ratioP1;P1;durP2;ratioP2;P2;SDS_P1;SDS_P2;PMS_P1;PMS_P2;Temp;Humidity;BMP_temperature;BMP_pressure;BME280_temperature;BME280_humidity;BME280_pressure;Samples;Min_cycle;Max_cycle;Signal;HPM_P1;HPM_P2
2022/02/13 00:02:52;;;;;;;;;88.67;78.33;;;;;11.15;75.03;102096.00;146605;628;45026;-73
2022/02/13 00:05:44;;;;;;;;;100.33;93.33;;;;;11.19;75.11;102087.66;146608;699;47012;-79
2022/02/13 00:08:36;;;;;;;;;122.25;111.00;;;;;11.25;74.99;102089.78;146604;585;46020;-71
2022/02/13 00:11:29;;;;;;;;;75.33;63.33;;;;;11.27;75.67;102096.84;146597;564;46010;-71
2022/02/13 00:14:21;;;;;;;;;64.75;50.50;;;;;11.29;74.90;102099.56;146593;636;46008;-70
2022/02/13 00:17:13;;;;;;;;;63.25;49.75;;;;;11.32;74.73;102092.00;146595;602;47010;-71
2022/02/13 00:20:05;;;;;;;;;65.50;51.50;;;;;11.36;74.33;102099.19;146595;629;46021;-69
2022/02/13 00:22:58;;;;;;;;;66.50;52.00;;;;;11.38;74.80;102089.84;146597;608;46016;-69
2022/02/13 00:25:50;;;;;;;;;71.50;56.50;;;;;11.41;74.76;102100.44;146594;566;46020;-67
2022/02/13 00:28:42;;;;;;;;;66.00;51.25;;;;;11.40;74.95;102093.44;146594;600;46914;-71
2022/02/13 00:31:35;;;;;;;;;61.00;48.75;;;;;11.40;74.59;102096.03;146598;741;46020;-68
2022/02/13 00:34:27;;;;;;;;;52.50;41.00;;;;;11.40;74.51;102083.06;146595;582;46016;-69
2022/02/13 00:37:19;;;;;;;;;50.00;40.25;;;;;11.37;74.50;102093.25;146597;606;46021;-70
2022/02/13 00:40:13;;;;;;;;;50.25;40.00;;;;;11.35;74.41;102102.59;146592;608;46010;-68
2022/02/13 00:43:05;;;;;;;;;48.50;40.00;;;;;11.32;76.89;102081.63;146591;570;46021;-68
2022/02/13 00:45:57;;;;;;;;;49.50;39.50;;;;;11.23;77.58;102089.66;146592;641;47012;-68
2022/02/13 00:48:50;;;;;;;;;48.25;37.50;;;;;11.19;75.82;102108.41;146598;615;46026;-69
2022/02/13 00:51:42;;;;;;;;;49.50;39.25;;;;;11.18;76.09;102095.31;146597;587;46010;-69
2022/02/13 00:54:35;;;;;;;;;55.50;41.50;;;;;10.16;75.18;101932.44;146599;575;46020;-68
2022/02/13 00:57:27;;;;;;;;;57.00;46.00;;;;;11.19;75.25;102081.56;146599;607;46010;-67
2022/02/13 01:00:20;;;;;;;;;59.50;45.50;;;;;11.24;75.11;102095.75;146599;585;47008;-67
2022/02/13 01:03:12;;;;;;;;;56.00;45.00;;;;;11.25;75.78;102087.19;146603;597;46016;-69
2022/02/13 01:06:04;;;;;;;;;57.00;46.25;;;;;11.25;75.83;102090.66;146598;612;46008;-69
2022/02/13 01:08:56;;;;;;;;;62.50;48.50;;;;;11.26;75.49;102094.16;146596;595;46016;-69
2022/02/13 01:11:49;;;;;;;;;61.75;48.75;;;;;11.25;78.24;102077.69;146595;584;45916;-69
2022/02/13 01:14:41;;;;;;;;;60.75;47.75;;;;;11.20;76.12;102080.75;146597;598;45913;-68
2022/02/13 01:17:34;;;;;;;;;61.00;48.00;;;;;10.20;76.22;101893.78;146597;576;46020;-72
2022/02/13 01:20:26;;;;;;;;;63.75;50.75;;;;;11.20;76.15;102073.87;146600;591;45914;-71
2022/02/13 01:23:19;;;;;;;;;72.50;55.00;;;;;11.17;78.02;102059.78;146597;590;45915;-72
2022/02/13 01:26:11;;;;;;;;;62.75;50.50;;;;;11.16;76.97;102055.38;146590;653;47013;-70
2022/02/13 01:29:03;;;;;;;;;70.67;61.67;;;;;11.16;77.14;102068.38;146593;777;46021;-71
2022/02/13 01:31:56;;;;;;;;;65.25;51.75;;;;;11.12;76.82;102061.13;146607;575;46016;-74
2022/02/13 01:34:48;;;;;;;;;58.75;47.00;;;;;11.08;79.19;102042.75;146595;641;46021;-75
2022/02/13 01:37:40;;;;;;;;;54.25;42.00;;;;;11.03;77.46;102046.72;146595;589;46016;-74
2022/02/13 01:40:33;;;;;;;;;52.75;42.50;;;;;11.02;76.41;102046.59;146591;583;46020;-77
2022/02/13 01:43:25;;;;;;;;;50.00;40.25;;;;;11.01;77.63;102047.41;146592;719;46016;-72
2022/02/13 01:46:17;;;;;;;;;53.25;41.00;;;;;10.99;76.79;102049.88;146599;572;45027;-70
2022/02/13 01:49:10;;;;;;;;;51.75;41.00;;;;;10.98;76.46;102045.50;146596;576;47010;-71
2022/02/13 01:52:08;;;;;;;;;54.25;43.50;;;;;10.99;75.50;102029.13;146594;763;47020;-74
2022/02/13 01:55:01;;;;;;;;;55.00;44.50;;;;;11.02;76.53;102042.31;146594;606;46012;-75
2022/02/13 01:57:52;;;;;;;;;49.50;40.00;;;;;10.96;76.97;102031.50;146598;615;46021;-78
2022/02/13 02:00:45;;;;;;;;;47.75;38.25;;;;;10.95;75.49;102042.69;146597;579;46016;-77
2022/02/13 02:03:37;;;;;;;;;56.75;45.00;;;;;10.97;75.52;102038.50;146599;574;46020;-75
2022/02/13 02:06:29;;;;;;;;;59.25;46.25;;;;;11.00;75.65;102030.03;146595;584;46017;-74
2022/02/13 02:09:21;;;;;;;;;61.75;46.00;;;;;11.03;75.52;102040.66;146592;643;46008;-72
2022/02/13 02:12:14;;;;;;;;;59.50;46.25;;;;;11.00;76.93;102045.62;146595;569;47012;-74
2022/02/13 02:15:07;;;;;;;;;60.25;47.00;;;;;10.96;76.89;102022.81;146599;571;46012;-75
2022/02/13 02:17:59;;;;;;;;;57.25;45.25;;;;;10.92;76.36;102029.50;146602;633;45914;-72
2022/02/13 02:20:54;;;;;;;;;65.25;51.00;;;;;10.91;76.60;102038.06;146592;609;47481;-70
2022/02/13 02:23:46;;;;;;;;;91.00;76.67;;;;;10.92;76.16;102034.69;146597;580;47010;-77
2022/02/13 02:26:38;;;;;;;;;62.25;48.50;;;;;10.91;78.32;102052.75;146602;575;47008;-74
2022/02/13 02:29:33;;;;;;;;;57.50;45.75;;;;;10.84;77.30;102051.38;146601;572;46016;-75
2022/02/13 02:32:25;;;;;;;;;77.67;65.33;;;;;10.81;76.34;102043.37;146596;593;46020;-77
2022/02/13 02:35:17;;;;;;;;;56.00;44.00;;;;;10.84;76.53;102056.56;146598;579;46010;-79
2022/02/13 02:38:09;;;;;;;;;57.25;47.25;;;;;10.86;76.47;102055.00;146590;632;46020;-72
2022/02/13 02:41:01;;;;;;;;;56.25;44.75;;;;;10.88;77.33;102036.97;146596;594;46016;-79
2022/02/13 02:43:54;;;;;;;;;50.50;41.50;;;;;10.86;76.66;102044.63;146594;576;46021;-73
2022/02/13 02:46:46;;;;;;;;;71.75;55.75;;;;;10.88;75.91;102043.06;146597;570;46016;-73
2022/02/13 02:49:38;;;;;;;;;52.00;40.75;;;;;10.90;76.12;102041.44;146599;569;47009;-67
2022/02/13 02:52:30;;;;;;;;;48.25;38.00;;;;;10.91;75.84;102061.44;146592;582;46016;-68
2022/02/13 02:55:23;;;;;;;;;59.75;46.75;;;;;10.94;75.91;102051.28;146595;583;46020;-73
2022/02/13 02:58:15;;;;;;;;;50.50;39.25;;;;;10.95;75.45;102054.75;146600;578;46914;-71
2022/02/13 03:01:08;;;;;;;;;47.25;39.00;;;;;10.98;75.60;102055.88;146599;778;46008;-72
2022/02/13 03:04:00;;;;;;;;;49.75;40.50;;;;;11.01;75.25;102050.00;146596;617;47008;-71
2022/02/13 03:06:53;;;;;;;;;41.50;33.25;;;;;11.04;75.07;102048.53;146594;641;45020;-72
2022/02/13 03:09:45;;;;;;;;;38.75;33.00;;;;;11.06;75.05;102052.12;146599;591;46010;-70
2022/02/13 03:12:37;;;;;;;;;44.75;34.00;;;;;11.04;78.82;102058.91;146592;569;46021;-72
2022/02/13 03:15:30;;;;;;;;;47.75;38.50;;;;;11.03;75.65;102054.53;146598;674;46016;-71
2022/02/13 03:18:22;;;;;;;;;44.00;35.50;;;;;11.02;75.87;102057.88;146595;616;46021;-70
2022/02/13 03:21:15;;;;;;;;;47.00;37.50;;;;;10.07;75.15;101881.63;146592;608;46017;-73
2022/02/13 03:24:09;;;;;;;;;40.50;32.25;;;;;11.04;76.16;102048.53;146596;585;47008;-69
2022/02/13 03:27:01;;;;;;;;;44.25;35.75;;;;;11.00;75.94;102038.72;146599;595;46012;-71
2022/02/13 03:29:53;;;;;;;;;47.75;37.25;;;;;10.99;78.28;102052.47;146597;569;46008;-71
2022/02/13 03:32:46;;;;;;;;;42.75;35.25;;;;;10.94;77.38;102052.97;146593;663;47012;-71
2022/02/13 03:35:38;;;;;;;;;49.50;42.00;;;;;10.89;75.86;102062.09;146591;582;46008;-77
2022/02/13 03:38:30;;;;;;;;;47.50;37.50;;;;;10.86;75.72;102058.50;146594;577;46030;-71
2022/02/13 03:41:23;;;;;;;;;48.25;38.50;;;;;10.89;75.61;102056.91;146598;597;46008;-70
2022/02/13 03:44:15;;;;;;;;;40.75;33.50;;;;;10.92;75.51;102050.25;146599;581;46017;-76
2022/02/13 03:47:08;;;;;;;;;39.25;33.50;;;;;10.96;75.66;102052.25;146595;578;46020;-77
2022/02/13 03:50:00;;;;;;;;;35.50;31.25;;;;;10.97;75.34;102040.22;146596;574;47010;-69
2022/02/13 03:52:52;;;;;;;;;33.50;31.00;;;;;11.00;75.39;102043.03;146599;655;47008;-69
2022/02/13 03:55:45;;;;;;;;;33.00;30.00;;;;;11.01;75.51;102042.22;146597;607;47010;-69
2022/02/13 03:58:37;;;;;;;;;28.75;24.25;;;;;11.00;75.52;102051.69;146599;585;46020;-69
2022/02/13 04:01:31;;;;;;;;;32.50;29.50;;;;;10.97;76.09;102058.38;146592;614;46016;-69
2022/02/13 04:04:23;;;;;;;;;26.50;26.00;;;;;10.91;76.58;102069.22;146592;614;46026;-69
2022/02/13 04:07:15;;;;;;;;;35.50;31.25;;;;;10.84;76.28;102066.97;146597;588;47012;-69
2022/02/13 04:10:09;;;;;;;;;33.25;29.25;;;;;10.79;75.74;102060.56;146599;619;46021;-71
2022/02/13 04:13:01;;;;;;;;;35.50;30.50;;;;;10.80;75.40;102063.25;146595;636;46010;-76
2022/02/13 04:15:53;;;;;;;;;33.50;27.75;;;;;10.83;75.11;102070.34;146598;603;46020;-72
2022/02/13 04:18:45;;;;;;;;;35.25;29.25;;;;;10.83;75.70;102078.13;146596;627;47012;-70
2022/02/13 04:21:38;;;;;;;;;29.75;26.75;;;;;10.81;75.50;102077.13;146598;581;46008;-70
2022/02/13 04:24:30;;;;;;;;;26.25;23.50;;;;;9.75;77.45;101903.53;146596;573;46016;-70
2022/02/13 04:27:22;;;;;;;;;28.75;25.25;;;;;10.74;76.22;102090.44;146597;614;46020;-69
2022/02/13 04:30:15;;;;;;;;;27.25;22.75;;;;;10.69;75.81;102087.53;146595;596;46016;-69
2022/02/13 04:33:07;;;;;;;;;31.50;28.00;;;;;10.70;75.58;102080.66;146592;646;46021;-69
2022/02/13 04:36:00;;;;;;;;;31.75;29.75;;;;;9.74;76.42;101912.06;146596;566;46016;-69
2022/02/13 04:38:52;;;;;;;;;27.00;26.00;;;;;10.67;76.29;102089.09;146598;566;46021;-68
2022/02/13 04:41:44;;;;;;;;;28.00;24.25;;;;;10.66;75.53;102095.09;146594;617;47010;-68
2022/02/13 04:44:36;;;;;;;;;29.50;28.25;;;;;10.69;75.15;102092.72;146597;571;46916;-69
2022/02/13 04:47:29;;;;;;;;;25.25;23.75;;;;;10.71;75.22;102098.00;146593;625;46025;-75
2022/02/13 04:50:21;;;;;;;;;26.75;22.50;;;;;10.74;74.62;102095.63;146598;572;46020;-70
2022/02/13 04:53:15;;;;;;;;;20.25;18.50;;;;;10.76;74.08;102105.34;146597;571;46010;-70
2022/02/13 04:56:07;;;;;;;;;22.75;22.50;;;;;10.81;74.19;102111.78;146599;670;46020;-71
2022/02/13 04:58:59;;;;;;;;;23.25;21.50;;;;;10.81;73.85;102114.38;146594;650;46016;-70
2022/02/13 05:01:51;;;;;;;;;23.25;22.00;;;;;10.82;73.91;102117.84;146591;589;46020;-70
2022/02/13 05:04:43;;;;;;;;;26.75;23.75;;;;;10.82;73.55;102120.44;146595;566;46016;-69
2022/02/13 05:07:36;;;;;;;;;24.50;22.00;;;;;10.84;74.89;102124.03;146596;584;46020;-71
2022/02/13 05:10:28;;;;;;;;;27.50;26.00;;;;;10.84;74.24;102129.22;146593;709;45914;-71
2022/02/13 05:13:20;;;;;;;;;36.00;33.00;;;;;10.86;74.17;102119.88;146598;595;46008;-74
2022/02/13 05:16:12;;;;;;;;;27.50;25.00;;;;;10.86;75.00;102117.28;146595;574;46016;-73
2022/02/13 05:19:05;;;;;;;;;22.00;21.00;;;;;10.85;73.57;102115.50;146595;577;46020;-73
2022/02/13 05:21:57;;;;;;;;;31.50;28.50;;;;;10.86;74.01;102119.88;146594;589;46016;-73
2022/02/13 05:24:49;;;;;;;;;29.75;25.25;;;;;10.88;73.53;102112.22;146597;572;47009;-74
2022/02/13 05:27:42;;;;;;;;;30.25;26.00;;;;;10.89;74.67;102111.41;146595;583;46012;-74
2022/02/13 05:30:34;;;;;;;;;25.00;23.25;;;;;10.88;73.83;102115.72;146590;564;47008;-73
2022/02/13 05:33:26;;;;;;;;;32.50;28.50;;;;;10.89;74.03;102125.28;146591;580;46016;-73
2022/02/13 05:36:18;;;;;;;;;29.75;28.50;;;;;10.85;74.84;102129.34;146597;575;46020;-73
2022/02/13 05:39:10;;;;;;;;;33.75;29.50;;;;;9.84;74.89;101963.75;146594;576;47011;-73
2022/02/13 05:42:03;;;;;;;;;24.50;22.25;;;;;10.72;75.33;102138.75;146593;612;46020;-72
2022/02/13 05:44:56;;;;;;;;;25.75;21.75;;;;;10.66;74.74;102146.06;146594;601;46012;-73
2022/02/13 05:47:48;;;;;;;;;27.75;22.75;;;;;10.64;74.85;102145.94;146595;578;47008;-72
2022/02/13 05:50:41;;;;;;;;;33.00;25.25;;;;;10.62;74.52;102152.72;146592;628;47010;-72
2022/02/13 05:53:33;;;;;;;;;26.00;23.00;;;;;10.64;74.22;102152.03;146584;641;47008;-73
2022/02/13 05:56:25;;;;;;;;;30.25;26.75;;;;;10.68;74.41;102158.34;146586;583;46016;-72
2022/02/13 05:59:18;;;;;;;;;26.75;24.00;;;;;10.68;74.63;102157.44;146587;708;46020;-73
2022/02/13 06:02:10;;;;;;;;;33.75;29.00;;;;;10.66;76.32;102164.25;146586;579;46016;-69
2022/02/13 06:05:02;;;;;;;;;30.25;28.75;;;;;10.60;75.71;102162.09;146591;579;45020;-69
2022/02/13 06:07:54;;;;;;;;;26.25;25.25;;;;;10.55;75.61;102160.84;146584;597;46012;-70
2022/02/13 06:10:47;;;;;;;;;27.25;25.50;;;;;10.52;74.96;102158.91;146588;588;46020;-70
2022/02/13 06:13:39;;;;;;;;;28.25;25.00;;;;;10.54;75.37;102164.22;146585;602;46010;-72
2022/02/13 06:16:31;;;;;;;;;23.00;21.25;;;;;10.49;77.43;102175.94;146589;679;46021;-73
2022/02/13 06:19:23;;;;;;;;;31.00;28.00;;;;;10.46;74.91;102168.81;146588;614;45914;-85
2022/02/13 06:22:16;;;;;;;;;23.00;23.00;;;;;10.50;74.18;102172.53;146587;705;47916;-88
2022/02/13 06:25:09;;;;;;;;;20.00;19.75;;;;;10.58;72.75;102169.75;146588;595;46010;-85
2022/02/13 06:28:01;;;;;;;;;34.25;30.25;;;;;10.67;72.55;102176.41;146589;612;45020;-84
2022/02/13 06:30:54;;;;;;;;;34.50;32.25;;;;;10.75;72.35;102183.06;146586;574;46016;-84
2022/02/13 06:33:46;;;;;;;;;39.00;33.25;;;;;10.80;72.61;102192.09;146586;593;47008;-85
2022/02/13 06:36:38;;;;;;;;;34.75;30.50;;;;;10.84;73.59;102192.44;146586;630;46016;-85
2022/02/13 06:39:31;;;;;;;;;22.25;20.25;;;;;10.83;74.98;102195.78;146587;640;46021;-83
2022/02/13 06:42:23;;;;;;;;;26.75;24.25;;;;;10.76;74.54;102192.66;146584;625;46016;-84
2022/02/13 06:45:16;;;;;;;;;49.25;40.75;;;;;10.68;74.20;102191.16;146586;669;47008;-84
2022/02/13 06:48:09;;;;;;;;;26.50;23.75;;;;;10.66;72.55;102191.06;146587;669;46016;-85
2022/02/13 06:51:04;;;;;;;;;29.75;26.00;;;;;10.71;72.22;102199.19;146589;609;45020;-74
2022/02/13 06:53:57;;;;;;;;;32.25;29.50;;;;;10.78;72.44;102196.28;146590;574;46016;-74
2022/02/13 06:56:49;;;;;;;;;31.00;28.25;;;;;10.84;73.28;102196.69;146589;598;46020;-80
2022/02/13 06:59:41;;;;;;;;;26.25;26.00;;;;;10.85;71.33;102191.62;146588;654;46017;-81
2022/02/13 07:02:34;;;;;;;;;24.50;22.25;;;;;10.90;71.30;102189.34;146588;759;46008;-81
2022/02/13 07:05:27;;;;;;;;;25.25;22.00;;;;;10.94;72.26;102196.59;146590;591;46914;-82
2022/02/13 07:08:19;;;;;;;;;39.25;31.00;;;;;11.01;72.10;102190.16;146595;608;46021;-83
2022/02/13 07:11:17;;;;;;;;;29.50;26.50;;;;;11.06;71.07;102200.09;146592;604;45914;-83
2022/02/13 07:14:10;;;;;;;;;24.50;21.75;;;;;11.14;71.30;102210.13;146596;686;45042;-84
2022/02/13 07:17:04;;;;;;;;;23.00;21.75;;;;;11.19;70.99;102212.25;146592;591;46016;-83
2022/02/13 07:19:56;;;;;;;;;27.75;26.50;;;;;11.19;71.17;102212.25;146596;583;45020;-77
2022/02/13 07:22:48;;;;;;;;;25.25;22.50;;;;;10.09;70.93;102026.09;146587;581;46010;-81
2022/02/13 07:25:41;;;;;;;;;28.25;26.25;;;;;11.14;70.68;102212.72;146592;595;46020;-71
2022/02/13 07:31:43;;;;;;;;;22.75;18.25;;;;;11.07;70.73;102224.34;146591;652;47012;-70
2022/02/13 07:34:35;;;;;;;;;22.00;20.00;;;;;11.03;70.90;102220.63;146590;671;46012;-70
2022/02/13 07:37:27;;;;;;;;;17.25;15.75;;;;;11.01;70.53;102221.31;146590;570;46030;-70
2022/02/13 07:40:20;;;;;;;;;19.25;18.25;;;;;10.95;72.31;102226.94;146594;551;46012;-71
2022/02/13 07:43:12;;;;;;;;;21.00;21.00;;;;;10.86;72.27;102234.06;146595;598;46025;-69
2022/02/13 07:46:05;;;;;;;;;24.25;21.00;;;;;10.78;72.73;102232.59;146593;564;46017;-80
2022/02/13 07:48:57;;;;;;;;;100.00;93.00;;;;;10.74;72.63;102243.50;146590;682;46020;-78
2022/02/13 07:51:50;;;;;;;;;60.25;48.50;;;;;10.73;72.95;102240.03;146594;591;46010;-74
2022/02/13 07:54:42;;;;;;;;;35.00;31.50;;;;;10.74;73.17;102246.09;146591;569;46915;-68
2022/02/13 07:57:34;;;;;;;;;50.25;38.75;;;;;10.72;72.64;102245.12;146596;590;46016;-67
2022/02/13 08:00:26;;;;;;;;;51.50;40.25;;;;;10.70;72.54;102251.88;146596;600;46021;-69
2022/02/13 08:03:18;;;;;;;;;140.33;109.33;;;;;10.68;72.53;102249.12;146596;564;46032;-71
2022/02/13 08:06:12;;;;;;;;;71.00;52.50;;;;;10.72;72.72;102252.91;146597;675;46009;-70
2022/02/13 08:09:04;;;;;;;;;35.25;29.00;;;;;10.74;72.83;102252.19;146596;589;46016;-75
2022/02/13 08:11:56;;;;;;;;;16.25;15.00;;;;;10.77;71.01;102251.53;146599;573;46008;-72
2022/02/13 08:14:49;;;;;;;;;12.75;12.50;;;;;10.77;71.90;102248.94;146598;569;46011;-73
2022/02/13 08:17:41;;;;;;;;;13.25;13.25;;;;;10.40;70.02;102181.31;146596;602;47008;-71
2022/02/13 08:20:33;;;;;;;;;40.75;34.75;;;;;10.78;70.59;102251.66;146597;604;45914;-72
2022/02/13 08:23:27;;;;;;;;;35.00;31.25;;;;;10.84;71.48;102265.09;146590;670;46021;-68
2022/02/13 08:26:22;;;;;;;;;31.50;25.75;;;;;10.90;71.61;102255.94;146594;644;46016;-68
2022/02/13 08:29:15;;;;;;;;;127.25;108.00;;;;;10.95;71.72;102264.97;146601;597;46021;-74
2022/02/13 08:32:07;;;;;;;;;75.33;63.33;;;;;11.00;72.54;102264.53;146598;589;46010;-71
2022/02/13 08:35:00;;;;;;;;;46.50;36.50;;;;;11.02;73.16;102264.63;146596;605;46008;-71
2022/02/13 08:37:52;;;;;;;;;28.25;26.25;;;;;11.02;73.48;102268.13;146594;579;46012;-74
2022/02/13 08:40:45;;;;;;;;;28.50;27.00;;;;;10.98;72.76;102266.09;146597;590;45915;-70
2022/02/13 08:43:37;;;;;;;;;24.00;20.75;;;;;10.97;73.21;102274.69;146595;565;46035;-68
2022/02/13 08:46:30;;;;;;;;;27.25;25.75;;;;;10.98;72.89;102281.69;146598;588;47008;-70
2022/02/13 08:49:22;;;;;;;;;21.50;20.25;;;;;11.02;72.73;102280.22;146594;641;46023;-74
2022/02/13 08:52:15;;;;;;;;;32.50;28.50;;;;;11.08;72.86;102278.06;146589;593;46021;-70
2022/02/13 08:55:07;;;;;;;;;40.25;33.75;;;;;11.16;72.11;102279.53;146594;573;47012;-71
2022/02/13 08:58:01;;;;;;;;;35.75;32.00;;;;;11.23;71.61;102280.91;146597;571;46021;-78
2022/02/13 09:00:53;;;;;;;;;30.50;28.25;;;;;11.26;70.82;102278.53;146598;573;46012;-80
2022/02/13 09:03:45;;;;;;;;;43.50;35.00;;;;;11.31;71.07;102290.16;146596;610;46020;-74
2022/02/13 09:06:38;;;;;;;;;50.50;40.25;;;;;11.37;71.87;102295.81;146597;603;46017;-76
2022/02/13 09:09:33;;;;;;;;;48.00;37.75;;;;;11.46;71.93;102296.44;146599;615;46008;-78
2022/02/13 09:12:26;;;;;;;;;47.75;37.75;;;;;11.52;71.48;102286.50;146598;667;46016;-77
2022/02/13 09:15:19;;;;;;;;;19.75;18.75;;;;;11.54;69.58;102289.22;146591;565;46021;-75
2022/02/13 09:18:16;;;;;;;;;28.25;25.50;;;;;11.47;71.30;102272.28;146594;596;46016;-75
2022/02/13 09:21:08;;;;;;;;;27.50;25.00;;;;;11.49;70.63;102294.06;146593;651;46012;-75
2022/02/13 09:24:00;;;;;;;;;21.00;19.00;;;;;11.47;70.16;102293.06;146595;669;46016;-75
2022/02/13 09:26:53;;;;;;;;;32.00;26.75;;;;;11.49;70.72;102285.38;146599;645;46008;-75
2022/02/13 09:29:46;;;;;;;;;38.75;33.25;;;;;11.55;71.01;102286.72;146592;589;46012;-75
2022/02/13 09:32:40;;;;;;;;;64.50;44.25;;;;;11.60;70.73;102283.56;146600;583;46008;-75
2022/02/13 09:35:32;;;;;;;;;47.50;37.75;;;;;11.61;71.16;102285.38;146593;590;46017;-75
2022/02/13 09:38:25;;;;;;;;;40.75;34.00;;;;;11.59;71.22;102286.94;146596;587;45021;-75
2022/02/13 09:41:21;;;;;;;;;31.75;26.25;;;;;11.58;71.08;102280.84;146592;601;46012;-75
2022/02/13 09:44:14;;;;;;;;;23.25;22.00;;;;;11.59;70.98;102285.28;146597;569;45916;-75
2022/02/13 09:47:08;;;;;;;;;25.75;25.00;;;;;11.53;70.05;102283.12;146592;578;47010;-75
2022/02/13 09:50:00;;;;;;;;;17.00;14.25;;;;;11.50;70.24;102284.59;146593;588;46009;-75
2022/02/13 09:52:54;;;;;;;;;14.25;14.00;;;;;11.45;70.66;102286.84;146593;590;46017;-74
2022/02/13 09:55:46;;;;;;;;;16.50;15.25;;;;;11.38;70.27;102276.81;146597;578;46020;-75
2022/02/13 09:58:39;;;;;;;;;22.25;19.25;;;;;11.37;69.95;102285.41;146593;577;46017;-75
2022/02/13 10:02:00;;;;;;;;;24.50;20.50;;;;;10.11;69.42;102060.78;146598;641;48008;-75
2022/02/13 10:04:52;;;;;;;;;37.00;31.25;;;;;11.36;69.85;102283.59;146593;610;46016;-76
2022/02/13 10:07:44;;;;;;;;;51.00;41.00;;;;;11.31;70.51;102280.66;146596;589;46020;-73
2022/02/13 10:10:37;;;;;;;;;36.00;32.75;;;;;11.26;70.49;102271.63;146592;597;47010;-78
2022/02/13 10:14:06;;;;;;;;;23.50;21.50;;;;;11.19;69.42;102271.97;146597;590;46008;-73
2022/02/13 10:16:59;;;;;;;;;38.25;33.50;;;;;11.13;69.76;102270.63;146598;630;46010;-73
2022/02/13 10:19:57;;;;;;;;;25.75;23.50;;;;;11.10;73.28;102259.22;146591;624;46008;-73
2022/02/13 10:22:49;;;;;;;;;29.00;23.50;;;;;11.02;72.12;102262.03;146595;619;46016;-74
2022/02/13 10:25:43;;;;;;;;;23.00;20.25;;;;;10.94;73.01;102260.59;146596;635;47008;-73
2022/02/13 10:28:40;;;;;;;;;23.50;21.00;;;;;10.88;73.60;102267.91;146595;566;46017;-73
2022/02/13 10:31:32;;;;;;;;;17.25;12.75;;;;;10.78;74.55;102266.34;146600;569;46008;-74
2022/02/13 10:34:26;;;;;;;;;19.75;16.00;;;;;10.67;74.88;102262.91;146595;602;46016;-73
2022/02/13 10:37:43;;;;;;;;;16.50;15.75;;;;;10.56;74.40;102261.19;146600;619;46008;-73
2022/02/13 10:40:35;;;;;;;;;28.75;25.25;;;;;10.45;75.21;102257.78;146598;650;47012;-72
2022/02/13 10:43:28;;;;;;;;;21.00;19.75;;;;;10.40;74.79;102261.72;146597;570;45914;-72
2022/02/13 10:46:21;;;;;;;;;20.75;20.00;;;;;10.37;74.35;102256.28;146595;566;46010;-72
2022/02/13 10:49:16;;;;;;;;;9.75;8.25;;;;;10.36;74.05;102255.41;146593;673;46020;-74
2022/02/13 10:52:09;;;;;;;;;24.00;23.25;;;;;10.40;73.93;102251.34;146596;609;47010;-73
2022/02/13 10:55:02;;;;;;;;;23.50;22.50;;;;;10.46;73.90;102258.69;146595;593;46020;-73
2022/02/13 10:57:54;;;;;;;;;49.25;39.50;;;;;10.48;73.69;102260.63;146600;604;46010;-73
2022/02/13 11:00:47;;;;;;;;;44.25;36.25;;;;;10.44;73.37;102258.59;146598;584;46020;-73
2022/02/13 11:03:41;;;;;;;;;56.00;41.50;;;;;10.43;73.50;102254.16;146595;579;46016;-73
2022/02/13 11:06:42;;;;;;;;;64.25;49.75;;;;;10.39;73.13;102253.03;146597;585;47008;-74
2022/02/13 11:09:35;;;;;;;;;51.75;41.25;;;;;10.38;73.01;102250.34;146606;683;45916;-73
2022/02/13 11:12:28;;;;;;;;;39.25;34.00;;;;;10.35;72.62;102255.28;146599;586;45021;-73
2022/02/13 11:15:23;;;;;;;;;36.75;32.00;;;;;10.36;72.19;102249.31;146595;616;46016;-74
2022/02/13 11:18:29;;;;;;;;;38.25;33.50;;;;;10.38;71.70;102242.56;146588;583;47008;-73
2022/02/13 11:21:23;;;;;;;;;24.75;22.25;;;;;10.42;71.15;102247.19;146595;586;46916;-74
2022/02/13 11:24:37;;;;;;;;;55.75;44.25;;;;;10.42;70.71;102244.59;146601;653;46008;-73
2022/02/13 11:27:30;;;;;;;;;17.75;16.50;;;;;10.44;70.53;102243.03;146593;579;47010;-73
2022/02/13 11:30:44;;;;;;;;;7.50;7.25;;;;;10.46;69.96;102236.25;146600;598;46010;-73
2022/02/13 11:33:47;;;;;;;;;29.75;28.00;;;;;10.48;71.16;102229.50;146594;566;46016;-73
2022/02/13 11:36:55;;;;;;;;;23.50;21.75;;;;;10.50;70.11;102221.81;146596;628;47008;-73
2022/02/13 11:39:49;;;;;;;;;26.00;22.25;;;;;10.51;70.39;102223.66;146599;635;46012;-73
2022/02/13 11:42:41;;;;;;;;;23.50;22.75;;;;;10.50;71.08;102225.34;146595;649;46021;-73
2022/02/13 11:45:46;;;;;;;;;13.00;11.00;;;;;10.51;70.10;102228.84;146593;573;47012;-74
2022/02/13 11:48:47;;;;;;;;;10.00;8.75;;;;;10.49;70.52;102227.81;146594;554;46020;-73
2022/02/13 11:52:11;;;;;;;;;19.75;17.75;;;;;9.27;70.83;102017.25;146595;593;46017;-74
2022/02/13 11:55:04;;;;;;;;;12.25;11.00;;;;;10.44;71.31;102222.28;146599;611;46020;-73
2022/02/13 11:58:05;;;;;;;;;9.25;9.00;;;;;10.39;70.44;102221.91;146596;566;46016;-73
2022/02/13 12:00:57;;;;;;;;;9.50;9.50;;;;;10.42;70.03;102215.16;146598;624;46020;-74
2022/02/13 12:03:50;;;;;;;;;24.75;23.00;;;;;10.43;70.23;102215.28;146595;584;47012;-75
2022/02/13 12:06:43;;;;;;;;;24.25;20.00;;;;;10.48;70.26;102210.44;146594;599;46020;-74
2022/02/13 12:09:42;;;;;;;;;22.00;17.00;;;;;10.51;69.85;102211.56;146599;589;46010;-74
2022/02/13 12:12:35;;;;;;;;;14.25;13.00;;;;;10.51;69.59;102202.91;146595;656;46020;-74
2022/02/13 12:15:28;;;;;;;;;13.00;11.75;;;;;10.47;69.82;102206.97;146599;613;46010;-73
2022/02/13 12:18:20;;;;;;;;;24.00;17.00;;;;;10.44;70.08;102201.53;146593;581;46008;-75
2022/02/13 12:21:13;;;;;;;;;26.25;23.50;;;;;10.43;69.46;102191.94;146593;616;46016;-74
2022/02/13 12:24:10;;;;;;;;;29.75;22.00;;;;;10.44;68.98;102192.87;146595;571;47008;-74
2022/02/13 12:27:07;;;;;;;;;46.50;39.00;;;;;10.46;69.11;102184.38;146593;576;47012;-74
2022/02/13 12:30:04;;;;;;;;;51.00;40.50;;;;;10.49;69.64;102179.44;146597;597;46008;-74
2022/02/13 12:33:03;;;;;;;;;45.25;38.00;;;;;10.56;70.58;102167.81;146595;569;46016;-74
2022/02/13 12:35:58;;;;;;;;;37.25;33.50;;;;;10.62;69.95;102168.25;146596;596;45021;-74
2022/02/13 12:38:50;;;;;;;;;51.25;43.75;;;;;10.68;69.92;102175.59;146600;595;47010;-74
2022/02/13 12:41:42;;;;;;;;;57.25;45.00;;;;;10.74;70.12;102178.66;146599;591;46008;-74
2022/02/13 12:44:58;;;;;;;;;27.25;24.25;;;;;9.58;70.16;101973.88;146597;593;46010;-74
2022/02/13 12:47:54;;;;;;;;;35.25;31.50;;;;;10.75;70.60;102170.09;146592;592;46008;-74
2022/02/13 12:50:49;;;;;;;;;28.50;26.25;;;;;10.76;70.70;102166.72;146596;610;46013;-74
2022/02/13 12:53:41;;;;;;;;;52.50;41.50;;;;;10.79;70.52;102170.44;146590;611;46008;-73
2022/02/13 12:56:33;;;;;;;;;45.00;36.00;;;;;10.82;69.83;102165.47;146586;740;46016;-73
2022/02/13 12:59:26;;;;;;;;;56.00;46.00;;;;;10.84;69.81;102165.56;146587;585;46021;-74
2022/02/13 13:02:26;;;;;;;;;52.75;42.75;;;;;10.79;69.54;102161.75;146586;601;46016;-74
2022/02/13 13:05:19;;;;;;;;;42.25;37.00;;;;;10.82;69.61;102173.25;146587;611;46008;-74
2022/02/13 13:08:17;;;;;;;;;57.75;44.75;;;;;10.82;69.55;102174.94;146586;569;46914;-74
2022/02/13 13:11:09;;;;;;;;;45.50;38.25;;;;;10.82;69.70;102172.34;146588;571;46008;-74
2022/02/13 13:14:15;;;;;;;;;50.50;40.00;;;;;10.82;70.25;102164.56;146584;648;47011;-74